Overview Statistics Trail Chart Weather Telemetry Raw packets
 

This is the latest recevied weather packets stored in our database for station/object KO4LCK. If no packets are shown the sender has not sent any weather packets the latest 10 day(s).

<< 14 15 16 17 18 19 20 >>
Time Temp. Humidity Pressure Rain* Wind** Luminosity Snow
1788550751 36.11° C 47% 1016.1 hPa 0 mm - 155 W/m² -
1788550446 36.67° C 47% 1016.1 hPa 0 mm - 149 W/m² -
1788550141 36.67° C 47% 1016.1 hPa 0 mm - 201 W/m² -
1788549837 36.67° C 46% 1016.5 hPa 0 mm - 470 W/m² -
1788549544 35° C 51% 1016.7 hPa 0 mm - 720 W/m² -
1788549229 34.44° C 52% 1016.5 hPa 0 mm - 717 W/m² -
1788548926 34.44° C 56% 1016.7 hPa 0 mm - 157 W/m² -
1788548621 34.44° C 54% 1016.7 hPa 0 mm - 116 W/m² -
1788548317 34.44° C 51% 1016.7 hPa 0 mm - 107 W/m² -
1788548012 35.56° C 49% 1017.1 hPa 0 mm - 122 W/m² -
1788547712 36.67° C 47% 1017 hPa 0 mm - 134 W/m² -
1788547407 36.67° C 45% 1017 hPa 0 mm - 207 W/m² -
1788547103 35° C 52% 1017.1 hPa 0 mm - 846 W/m² -
1788546798 33.89° C 54% 1017.2 hPa 0 mm - 169 W/m² -
1788546493 33.89° C 56% 1017.4 hPa 0 mm - 132 W/m² -
1788546188 33.89° C 55% 1017.4 hPa 0 mm - 133 W/m² -
1788545884 33.89° C 53% 1017.5 hPa 0 mm - 108 W/m² -
1788545583 34.44° C 53% 1017.6 hPa 0 mm - 86 W/m² -
1788545279 34.44° C 52% 1017.6 hPa 0 mm - 109 W/m² -
1788544974 34.44° C 51% 1017.6 hPa 0 mm - 186 W/m² -
1788544673 34.44° C 51% 1017.7 hPa 0 mm - 177 W/m² -
1788544371 35° C 51% 1017.6 hPa 0 mm - 262 W/m² -
1788544066 36.11° C 48% 1017.8 hPa 0 mm - 155 W/m² -
1788543763 35° C 49% 1017.7 hPa 0 mm - 821 W/m² -
1788543458 34.44° C 53% 1017.9 hPa 0 mm - 815 W/m² -

* Rain latest hour (hover to see other rain measurements)
** Current wind speed in m/s (hover to see current wind gust speed)